createdAt,value
2019-02-14T00:00:22.695Z,1026.77
2019-02-14T00:01:22.669Z,1026.81
2019-02-14T00:02:22.630Z,1026.76
2019-02-14T00:03:22.581Z,1026.80
2019-02-14T00:04:22.549Z,1026.76
2019-02-14T00:05:22.502Z,1026.78
2019-02-14T00:06:22.470Z,1026.73
2019-02-14T00:07:22.429Z,1026.72
2019-02-14T00:08:22.390Z,1026.73
2019-02-14T00:09:22.354Z,1026.76
2019-02-14T00:10:22.314Z,1026.76
2019-02-14T00:11:22.281Z,1026.76
2019-02-14T00:12:22.240Z,1026.79
2019-02-14T00:13:22.196Z,1026.75
2019-02-14T00:14:22.156Z,1026.77
2019-02-14T00:15:22.126Z,1026.77
2019-02-14T00:16:22.085Z,1026.78
2019-02-14T00:17:22.042Z,1026.75
2019-02-14T00:18:22.003Z,1026.74
2019-02-14T00:19:21.972Z,1026.73
2019-02-14T00:20:21.932Z,1026.71
2019-02-14T00:21:21.890Z,1026.75
2019-02-14T00:22:21.858Z,1026.70
2019-02-14T00:23:21.805Z,1026.73
2019-02-14T00:24:21.770Z,1026.72
2019-02-14T00:25:21.736Z,1026.72
2019-02-14T00:26:21.709Z,1026.71
2019-02-14T00:27:21.662Z,1026.68
2019-02-14T00:28:21.620Z,1026.67
2019-02-14T00:29:21.576Z,1026.64
2019-02-14T00:30:21.537Z,1026.60
2019-02-14T00:31:21.499Z,1026.56
2019-02-14T00:32:21.462Z,1026.55
2019-02-14T00:33:21.422Z,1026.58
2019-02-14T00:34:21.379Z,1026.58
2019-02-14T00:35:25.096Z,1026.63
2019-02-14T00:36:21.302Z,1026.62
2019-02-14T00:37:21.266Z,1026.63
2019-02-14T00:38:21.252Z,1026.62
2019-02-14T00:39:21.201Z,1026.61
2019-02-14T00:40:21.153Z,1026.60
2019-02-14T00:41:21.118Z,1026.61
2019-02-14T00:42:21.083Z,1026.61
2019-02-14T00:43:21.154Z,1026.64
2019-02-14T00:44:21.038Z,1026.63
2019-02-14T00:45:20.968Z,1026.62
2019-02-14T00:46:20.923Z,1026.57
2019-02-14T00:47:20.883Z,1026.54
2019-02-14T00:48:20.834Z,1026.56
2019-02-14T00:49:20.803Z,1026.56
2019-02-14T00:50:20.757Z,1026.57
2019-02-14T00:51:20.722Z,1026.55
2019-02-14T00:52:20.684Z,1026.59
2019-02-14T00:53:20.644Z,1026.61
2019-02-14T00:54:20.614Z,1026.58
2019-02-14T00:55:20.567Z,1026.58
2019-02-14T00:56:20.524Z,1026.59
2019-02-14T00:57:20.489Z,1026.58
2019-02-14T00:58:20.457Z,1026.58
2019-02-14T00:59:20.422Z,1026.53
2019-02-14T01:00:20.382Z,1026.52
2019-02-14T01:01:20.327Z,1026.54
2019-02-14T01:02:20.297Z,1026.53
2019-02-14T01:03:20.268Z,1026.54
2019-02-14T01:04:20.223Z,1026.56
2019-02-14T01:05:20.178Z,1026.52
2019-02-14T01:06:20.138Z,1026.52
2019-02-14T01:07:20.103Z,1026.54
2019-02-14T01:08:20.064Z,1026.50
2019-02-14T01:09:20.019Z,1026.47
2019-02-14T01:10:19.984Z,1026.48
2019-02-14T01:11:19.943Z,1026.51
2019-02-14T01:12:19.909Z,1026.52
2019-02-14T01:13:19.871Z,1026.51
2019-02-14T01:14:19.829Z,1026.50
2019-02-14T01:15:19.788Z,1026.50
2019-02-14T01:16:19.754Z,1026.51
2019-02-14T01:17:19.705Z,1026.52
2019-02-14T01:18:19.670Z,1026.53
2019-02-14T01:19:19.635Z,1026.52
2019-02-14T01:20:19.597Z,1026.51
2019-02-14T01:21:19.563Z,1026.55
2019-02-14T01:22:19.525Z,1026.55
2019-02-14T01:23:19.470Z,1026.56
2019-02-14T01:24:19.435Z,1026.49
2019-02-14T01:25:19.399Z,1026.54
2019-02-14T01:26:19.367Z,1026.54
2019-02-14T01:27:19.325Z,1026.52
2019-02-14T01:28:19.280Z,1026.53
2019-02-14T01:29:19.245Z,1026.52
2019-02-14T01:30:19.203Z,1026.51
2019-02-14T01:31:19.167Z,1026.55
2019-02-14T01:32:19.124Z,1026.54
2019-02-14T01:33:19.088Z,1026.55
2019-02-14T01:34:19.054Z,1026.55
2019-02-14T01:35:19.003Z,1026.54
2019-02-14T01:36:18.965Z,1026.58
2019-02-14T01:37:18.939Z,1026.56
2019-02-14T01:38:18.896Z,1026.53
2019-02-14T01:39:18.864Z,1026.55
2019-02-14T01:40:18.815Z,1026.54
2019-02-14T01:41:18.779Z,1026.57
2019-02-14T01:42:18.738Z,1026.59
2019-02-14T01:43:18.695Z,1026.57
2019-02-14T01:44:18.659Z,1026.60
2019-02-14T01:45:18.619Z,1026.64
2019-02-14T01:46:18.579Z,1026.57
2019-02-14T01:47:18.541Z,1026.63
2019-02-14T01:48:18.499Z,1026.61
2019-02-14T01:49:18.473Z,1026.65
2019-02-14T01:50:18.421Z,1026.60
2019-02-14T01:51:18.389Z,1026.66
2019-02-14T01:52:18.344Z,1026.69
2019-02-14T01:53:18.309Z,1026.67
2019-02-14T01:54:18.277Z,1026.68
2019-02-14T01:55:18.231Z,1026.61
2019-02-14T01:56:18.181Z,1026.63
2019-02-14T01:57:18.155Z,1026.67
2019-02-14T01:58:18.111Z,1026.66
2019-02-14T01:59:18.075Z,1026.66
2019-02-14T02:00:18.040Z,1026.66
2019-02-14T02:01:18.000Z,1026.66
2019-02-14T02:02:17.952Z,1026.70
2019-02-14T02:03:17.917Z,1026.66
2019-02-14T02:04:17.882Z,1026.68
2019-02-14T02:05:17.850Z,1026.66
2019-02-14T02:06:17.802Z,1026.65
2019-02-14T02:07:17.761Z,1026.61
2019-02-14T02:08:17.722Z,1026.61
2019-02-14T02:09:17.692Z,1026.62
2019-02-14T02:10:17.651Z,1026.57
2019-02-14T02:11:17.608Z,1026.58
2019-02-14T02:12:17.561Z,1026.60
2019-02-14T02:13:17.522Z,1026.57
2019-02-14T02:14:17.497Z,1026.60
2019-02-14T02:15:17.445Z,1026.59
2019-02-14T02:16:17.422Z,1026.60
2019-02-14T02:17:17.381Z,1026.63
2019-02-14T02:18:17.329Z,1026.61
2019-02-14T02:19:17.292Z,1026.61
2019-02-14T02:20:17.255Z,1026.58
2019-02-14T02:21:17.215Z,1026.53
2019-02-14T02:22:17.175Z,1026.57
2019-02-14T02:23:17.140Z,1026.58
2019-02-14T02:24:17.093Z,1026.58
2019-02-14T02:25:17.057Z,1026.56
2019-02-14T02:26:17.025Z,1026.60
2019-02-14T02:27:16.981Z,1026.63
2019-02-14T02:28:16.947Z,1026.61
2019-02-14T02:29:16.891Z,1026.61
2019-02-14T02:30:16.864Z,1026.55
2019-02-14T02:31:16.821Z,1026.60
2019-02-14T02:32:16.793Z,1026.57
2019-02-14T02:33:16.752Z,1026.55
2019-02-14T02:34:16.715Z,1026.57
2019-02-14T02:35:16.671Z,1026.56
2019-02-14T02:36:16.635Z,1026.55
2019-02-14T02:37:16.583Z,1026.57
2019-02-14T02:38:16.553Z,1026.55
2019-02-14T02:39:16.513Z,1026.58
2019-02-14T02:40:16.477Z,1026.58
2019-02-14T02:41:16.429Z,1026.58
2019-02-14T02:42:16.394Z,1026.57
2019-02-14T02:43:16.354Z,1026.54
2019-02-14T02:44:16.327Z,1026.57
2019-02-14T02:45:16.265Z,1026.60
2019-02-14T02:46:16.243Z,1026.58
2019-02-14T02:47:16.201Z,1026.59
2019-02-14T02:48:16.147Z,1026.58
2019-02-14T02:49:16.117Z,1026.54
2019-02-14T02:50:16.086Z,1026.53
2019-02-14T02:51:16.051Z,1026.55
2019-02-14T02:52:15.999Z,1026.53
2019-02-14T02:53:15.963Z,1026.53
2019-02-14T02:54:15.933Z,1026.52
2019-02-14T02:55:15.883Z,1026.53
2019-02-14T02:56:15.857Z,1026.51
2019-02-14T02:57:15.803Z,1026.49
2019-02-14T02:58:15.758Z,1026.51
2019-02-14T02:59:15.733Z,1026.48
2019-02-14T03:00:15.688Z,1026.45
2019-02-14T03:01:15.642Z,1026.43
2019-02-14T03:02:15.612Z,1026.42
2019-02-14T03:03:15.569Z,1026.43
2019-02-14T03:04:15.533Z,1026.46
2019-02-14T03:05:15.486Z,1026.47
2019-02-14T03:06:15.471Z,1026.47
2019-02-14T03:07:15.413Z,1026.48
2019-02-14T03:08:15.372Z,1026.48
2019-02-14T03:09:15.333Z,1026.42
2019-02-14T03:10:15.295Z,1026.44
2019-02-14T03:11:15.252Z,1026.44
2019-02-14T03:12:15.230Z,1026.44
2019-02-14T03:13:15.185Z,1026.43
2019-02-14T03:14:15.138Z,1026.40
2019-02-14T03:15:15.095Z,1026.42
2019-02-14T03:16:15.069Z,1026.41
2019-02-14T03:17:15.025Z,1026.41
2019-02-14T03:18:14.995Z,1026.43
2019-02-14T03:19:14.948Z,1026.46
2019-02-14T03:20:14.904Z,1026.44
2019-02-14T03:21:14.871Z,1026.45
2019-02-14T03:22:14.823Z,1026.40
2019-02-14T03:23:14.788Z,1026.40
2019-02-14T03:24:14.753Z,1026.39
2019-02-14T03:25:14.728Z,1026.42
2019-02-14T03:26:14.663Z,1026.44
2019-02-14T03:27:14.620Z,1026.47
2019-02-14T03:28:14.600Z,1026.44
2019-02-14T03:29:14.548Z,1026.46
2019-02-14T03:30:14.515Z,1026.47
2019-02-14T03:31:14.475Z,1026.48
2019-02-14T03:32:14.434Z,1026.43
2019-02-14T03:33:14.390Z,1026.43
2019-02-14T03:34:14.343Z,1026.43
2019-02-14T03:35:14.311Z,1026.42
2019-02-14T03:36:19.089Z,1026.45
2019-02-14T03:37:14.236Z,1026.43
2019-02-14T03:38:14.188Z,1026.45
2019-02-14T03:39:14.148Z,1026.45
2019-02-14T03:40:14.119Z,1026.42
2019-02-14T03:41:14.081Z,1026.46
2019-02-14T03:42:14.035Z,1026.47
2019-02-14T03:43:13.991Z,1026.48
2019-02-14T03:44:13.962Z,1026.49
2019-02-14T03:45:13.912Z,1026.48
2019-02-14T03:46:13.874Z,1026.49
2019-02-14T03:47:13.831Z,1026.47
2019-02-14T03:48:13.801Z,1026.49
2019-02-14T03:49:13.751Z,1026.49
2019-02-14T03:50:13.719Z,1026.51
2019-02-14T03:51:13.679Z,1026.57
2019-02-14T03:52:13.637Z,1026.52
2019-02-14T03:53:13.608Z,1026.50
2019-02-14T03:54:13.557Z,1026.56
2019-02-14T03:55:13.520Z,1026.54
2019-02-14T03:56:13.482Z,1026.52
2019-02-14T03:57:13.450Z,1026.53
2019-02-14T03:58:13.402Z,1026.53
2019-02-14T03:59:13.359Z,1026.48
2019-02-14T04:00:13.320Z,1026.48
2019-02-14T04:01:13.281Z,1026.50
2019-02-14T04:02:13.245Z,1026.49
2019-02-14T04:03:13.206Z,1026.51
2019-02-14T04:04:13.160Z,1026.53
2019-02-14T04:05:13.126Z,1026.54
2019-02-14T04:06:13.083Z,1026.55
2019-02-14T04:07:13.064Z,1026.56
2019-02-14T04:08:13.017Z,1026.55
2019-02-14T04:09:12.980Z,1026.56
2019-02-14T04:10:12.935Z,1026.55
2019-02-14T04:11:12.885Z,1026.52
2019-02-14T04:12:12.851Z,1026.57
2019-02-14T04:13:12.803Z,1026.58
2019-02-14T04:14:12.769Z,1026.54
2019-02-14T04:15:12.722Z,1026.56
2019-02-14T04:16:12.690Z,1026.59
2019-02-14T04:17:12.657Z,1026.60
2019-02-14T04:18:12.614Z,1026.61
2019-02-14T04:19:12.577Z,1026.59
2019-02-14T04:20:12.533Z,1026.62
2019-02-14T04:21:12.510Z,1026.60
2019-02-14T04:22:12.455Z,1026.62
2019-02-14T04:23:12.427Z,1026.58
2019-02-14T04:24:12.371Z,1026.63
2019-02-14T04:25:12.331Z,1026.63
2019-02-14T04:26:12.292Z,1026.64
2019-02-14T04:27:12.253Z,1026.63
2019-02-14T04:28:12.208Z,1026.65
2019-02-14T04:29:12.173Z,1026.66
2019-02-14T04:30:12.141Z,1026.64
2019-02-14T04:31:12.097Z,1026.65
2019-02-14T04:32:12.057Z,1026.66
2019-02-14T04:33:12.032Z,1026.66
2019-02-14T04:34:11.983Z,1026.65
2019-02-14T04:35:11.955Z,1026.59
2019-02-14T04:36:11.893Z,1026.65
2019-02-14T04:37:11.856Z,1026.66
2019-02-14T04:38:11.836Z,1026.65
2019-02-14T04:39:11.777Z,1026.62
2019-02-14T04:40:11.728Z,1026.67
2019-02-14T04:41:11.697Z,1026.65
2019-02-14T04:42:11.669Z,1026.67
2019-02-14T04:43:11.614Z,1026.67
2019-02-14T04:44:11.574Z,1026.65
2019-02-14T04:45:11.534Z,1026.68
2019-02-14T04:46:11.499Z,1026.69
2019-02-14T04:47:11.462Z,1026.66
2019-02-14T04:48:11.428Z,1026.67
2019-02-14T04:49:11.379Z,1026.66
2019-02-14T04:50:11.348Z,1026.66
2019-02-14T04:51:11.298Z,1026.73
2019-02-14T04:52:11.266Z,1026.71
2019-02-14T04:53:11.219Z,1026.72
2019-02-14T04:54:11.182Z,1026.71
2019-02-14T04:55:11.161Z,1026.73
2019-02-14T04:56:11.116Z,1026.74
2019-02-14T04:57:11.060Z,1026.70
2019-02-14T04:58:11.024Z,1026.71
2019-02-14T04:59:10.990Z,1026.69
2019-02-14T05:00:10.945Z,1026.73
2019-02-14T05:01:10.928Z,1026.72
2019-02-14T05:02:10.863Z,1026.69
2019-02-14T05:03:10.833Z,1026.72
2019-02-14T05:04:10.792Z,1026.69
2019-02-14T05:05:10.743Z,1026.74
2019-02-14T05:06:10.714Z,1026.79
2019-02-14T05:07:10.670Z,1026.81
2019-02-14T05:08:10.623Z,1026.82
2019-02-14T05:09:10.610Z,1026.85
2019-02-14T05:10:10.552Z,1026.87
2019-02-14T05:11:10.511Z,1026.90
2019-02-14T05:12:10.475Z,1026.87
2019-02-14T05:13:10.425Z,1026.89
2019-02-14T05:14:10.390Z,1026.87
2019-02-14T05:15:10.350Z,1026.86
2019-02-14T05:16:10.313Z,1026.88
2019-02-14T05:17:10.269Z,1026.89
2019-02-14T05:18:10.231Z,1026.89
2019-02-14T05:19:10.188Z,1026.90
2019-02-14T05:20:10.144Z,1026.92
2019-02-14T05:21:10.111Z,1026.94
2019-02-14T05:22:10.069Z,1026.91
2019-02-14T05:23:10.029Z,1026.90
2019-02-14T05:24:09.991Z,1026.89
2019-02-14T05:25:09.952Z,1026.88
2019-02-14T05:26:09.911Z,1026.86
2019-02-14T05:27:09.874Z,1026.87
2019-02-14T05:28:09.830Z,1026.87
2019-02-14T05:29:09.791Z,1026.83
2019-02-14T05:30:09.751Z,1026.86
2019-02-14T05:31:09.714Z,1026.86
2019-02-14T05:32:09.670Z,1026.80
2019-02-14T05:33:09.627Z,1026.85
2019-02-14T05:34:09.596Z,1026.79
2019-02-14T05:35:09.562Z,1026.82
2019-02-14T05:36:09.521Z,1026.79
2019-02-14T05:37:09.467Z,1026.80
2019-02-14T05:38:09.441Z,1026.79
2019-02-14T05:39:09.392Z,1026.79
2019-02-14T05:40:09.350Z,1026.79
2019-02-14T05:41:09.319Z,1026.79
2019-02-14T05:42:09.277Z,1026.76
2019-02-14T05:43:09.235Z,1026.75
2019-02-14T05:44:09.195Z,1026.77
2019-02-14T05:45:09.157Z,1026.70
2019-02-14T05:46:09.123Z,1026.68
2019-02-14T05:47:09.080Z,1026.72
2019-02-14T05:48:09.031Z,1026.70
2019-02-14T05:49:09.005Z,1026.67
2019-02-14T05:50:08.951Z,1026.71
2019-02-14T05:51:08.920Z,1026.71
2019-02-14T05:52:08.878Z,1026.71
2019-02-14T05:53:08.835Z,1026.71
2019-02-14T05:54:08.790Z,1026.73
2019-02-14T05:55:08.768Z,1026.75
2019-02-14T05:56:08.726Z,1026.72
2019-02-14T05:57:08.680Z,1026.70
2019-02-14T05:58:08.627Z,1026.71
2019-02-14T05:59:08.653Z,1026.75
2019-02-14T06:00:08.552Z,1026.77
2019-02-14T06:01:08.528Z,1026.84
2019-02-14T06:02:08.478Z,1026.80
2019-02-14T06:03:08.491Z,1026.81
2019-02-14T06:04:08.401Z,1026.81
2019-02-14T06:05:08.357Z,1026.85
2019-02-14T06:06:08.321Z,1026.85
2019-02-14T06:07:08.287Z,1026.84
2019-02-14T06:08:08.241Z,1026.86
2019-02-14T06:09:08.206Z,1026.84
2019-02-14T06:10:08.147Z,1026.88
2019-02-14T06:11:08.119Z,1026.88
2019-02-14T06:12:08.076Z,1026.87
2019-02-14T06:13:08.043Z,1026.86
2019-02-14T06:14:07.998Z,1026.93
2019-02-14T06:15:07.962Z,1026.94
2019-02-14T06:16:07.912Z,1026.99
2019-02-14T06:17:07.878Z,1026.99
2019-02-14T06:18:07.842Z,1027.03
2019-02-14T06:19:07.797Z,1027.08
2019-02-14T06:20:07.758Z,1027.10
2019-02-14T06:21:07.714Z,1027.08
2019-02-14T06:22:07.684Z,1027.10
2019-02-14T06:23:07.651Z,1027.10
2019-02-14T06:24:07.602Z,1027.15
2019-02-14T06:25:07.567Z,1027.14
2019-02-14T06:26:07.519Z,1027.15
2019-02-14T06:27:07.487Z,1027.16
2019-02-14T06:28:07.436Z,1027.15
2019-02-14T06:29:07.406Z,1027.18
2019-02-14T06:30:07.367Z,1027.18
2019-02-14T06:31:07.323Z,1027.14
2019-02-14T06:32:07.280Z,1027.16
2019-02-14T06:33:07.237Z,1027.14
2019-02-14T06:34:07.234Z,1027.12
2019-02-14T06:35:07.157Z,1027.15
2019-02-14T06:36:07.116Z,1027.14
2019-02-14T06:37:09.662Z,1027.17
2019-02-14T06:38:07.044Z,1027.11
2019-02-14T06:39:07.007Z,1027.09
2019-02-14T06:40:06.960Z,1027.15
2019-02-14T06:41:06.922Z,1027.14
2019-02-14T06:42:06.880Z,1027.14
2019-02-14T06:43:06.849Z,1027.16
2019-02-14T06:44:06.803Z,1027.16
2019-02-14T06:45:06.754Z,1027.15
2019-02-14T06:46:06.728Z,1027.15
2019-02-14T06:47:06.683Z,1027.17
2019-02-14T06:48:06.642Z,1027.17
2019-02-14T06:49:06.610Z,1027.18
2019-02-14T06:50:06.573Z,1027.20
2019-02-14T06:51:06.526Z,1027.21
2019-02-14T06:52:06.484Z,1027.24
2019-02-14T06:53:06.439Z,1027.29
2019-02-14T06:54:06.403Z,1027.31
2019-02-14T06:55:06.362Z,1027.33
2019-02-14T06:56:06.320Z,1027.34
2019-02-14T06:57:06.284Z,1027.36
2019-02-14T06:58:06.251Z,1027.36
2019-02-14T06:59:06.201Z,1027.34
2019-02-14T07:00:06.159Z,1027.35
2019-02-14T07:01:06.113Z,1027.38
2019-02-14T07:02:06.082Z,1027.36
2019-02-14T07:03:06.048Z,1027.38
2019-02-14T07:04:06.014Z,1027.39
2019-02-14T07:05:05.964Z,1027.40
2019-02-14T07:06:05.925Z,1027.41
2019-02-14T07:07:05.890Z,1027.43
2019-02-14T07:08:05.849Z,1027.43
2019-02-14T07:09:05.806Z,1027.45
2019-02-14T07:10:05.769Z,1027.43
2019-02-14T07:11:05.734Z,1027.45
2019-02-14T07:12:05.684Z,1027.46
2019-02-14T07:13:05.644Z,1027.43
2019-02-14T07:14:05.605Z,1027.48
2019-02-14T07:15:05.573Z,1027.49
2019-02-14T07:16:05.529Z,1027.50
2019-02-14T07:17:05.483Z,1027.49
2019-02-14T07:18:05.446Z,1027.49
2019-02-14T07:19:05.411Z,1027.50
2019-02-14T07:20:05.359Z,1027.52
2019-02-14T07:21:05.329Z,1027.56
2019-02-14T07:22:05.284Z,1027.56
2019-02-14T07:23:05.257Z,1027.53
2019-02-14T07:24:05.208Z,1027.51
2019-02-14T07:25:05.161Z,1027.54
2019-02-14T07:26:05.129Z,1027.54
2019-02-14T07:27:05.089Z,1027.56
2019-02-14T07:28:05.050Z,1027.53
2019-02-14T07:29:05.018Z,1027.54
2019-02-14T07:30:04.964Z,1027.57
2019-02-14T07:31:04.922Z,1027.58
2019-02-14T07:32:04.894Z,1027.61
2019-02-14T07:33:04.843Z,1027.64
2019-02-14T07:34:04.801Z,1027.66
2019-02-14T07:35:04.766Z,1027.66
2019-02-14T07:36:04.726Z,1027.66
2019-02-14T07:37:04.680Z,1027.66
2019-02-14T07:38:04.655Z,1027.67
2019-02-14T07:39:04.619Z,1027.66
2019-02-14T07:40:04.591Z,1027.69
2019-02-14T07:41:04.525Z,1027.67
2019-02-14T07:42:04.482Z,1027.69
2019-02-14T07:43:04.448Z,1027.66
2019-02-14T07:44:04.406Z,1027.64
2019-02-14T07:45:04.361Z,1027.61
2019-02-14T07:46:04.328Z,1027.66
2019-02-14T07:47:04.307Z,1027.63
2019-02-14T07:48:04.242Z,1027.64
2019-02-14T07:49:04.212Z,1027.64
2019-02-14T07:50:04.172Z,1027.64
2019-02-14T07:51:04.128Z,1027.68
2019-02-14T07:52:04.096Z,1027.68
2019-02-14T07:53:04.052Z,1027.73
2019-02-14T07:54:04.010Z,1027.74
2019-02-14T07:55:04.019Z,1027.76
2019-02-14T07:56:03.935Z,1027.74
2019-02-14T07:57:03.892Z,1027.74
2019-02-14T07:58:03.858Z,1027.71
2019-02-14T07:59:03.814Z,1027.74
2019-02-14T08:00:03.776Z,1027.74
2019-02-14T08:01:03.735Z,1027.68
2019-02-14T08:02:03.698Z,1027.67
2019-02-14T08:03:03.653Z,1027.72
2019-02-14T08:04:03.611Z,1027.69
2019-02-14T08:05:03.576Z,1027.69
2019-02-14T08:06:03.526Z,1027.67
2019-02-14T08:07:03.490Z,1027.72
2019-02-14T08:08:03.456Z,1027.70
2019-02-14T08:09:03.412Z,1027.66
2019-02-14T08:10:03.373Z,1027.67
2019-02-14T08:11:03.372Z,1027.70
2019-02-14T08:12:03.301Z,1027.72
2019-02-14T08:13:03.256Z,1027.72
2019-02-14T08:14:03.214Z,1027.72
2019-02-14T08:15:03.178Z,1027.72
2019-02-14T08:16:03.143Z,1027.72
2019-02-14T08:17:03.103Z,1027.73
2019-02-14T08:18:03.064Z,1027.71
2019-02-14T08:19:03.032Z,1027.72
2019-02-14T08:20:02.979Z,1027.68
2019-02-14T08:21:02.933Z,1027.71
2019-02-14T08:22:02.906Z,1027.68
2019-02-14T08:23:02.868Z,1027.71
2019-02-14T08:24:02.818Z,1027.68
2019-02-14T08:25:02.782Z,1027.67
2019-02-14T08:26:10.640Z,1027.68
2019-02-14T08:27:02.704Z,1027.67
2019-02-14T08:28:02.672Z,1027.67
2019-02-14T08:29:02.624Z,1027.68
2019-02-14T08:30:02.583Z,1027.67
2019-02-14T08:31:02.537Z,1027.66
2019-02-14T08:32:02.502Z,1027.62
2019-02-14T08:33:02.474Z,1027.63
2019-02-14T08:34:02.425Z,1027.59
2019-02-14T08:35:02.387Z,1027.62
2019-02-14T08:36:02.362Z,1027.60
2019-02-14T08:37:02.308Z,1027.65
2019-02-14T08:38:02.266Z,1027.61
2019-02-14T08:39:02.240Z,1027.61
2019-02-14T08:40:02.206Z,1027.61
2019-02-14T08:41:02.161Z,1027.59
2019-02-14T08:42:02.107Z,1027.64
2019-02-14T08:43:02.069Z,1027.61
2019-02-14T08:44:02.025Z,1027.63
2019-02-14T08:45:01.995Z,1027.62
2019-02-14T08:46:01.960Z,1027.59
2019-02-14T08:47:01.919Z,1027.65
2019-02-14T08:48:01.899Z,1027.62
2019-02-14T08:49:01.844Z,1027.62
2019-02-14T08:50:01.809Z,1027.65
2019-02-14T08:51:01.764Z,1027.65
2019-02-14T08:52:11.193Z,1027.63
2019-02-14T08:54:06.119Z,1027.59
2019-02-14T08:55:06.053Z,1027.62
2019-02-14T08:56:06.021Z,1027.62
2019-02-14T08:57:05.973Z,1027.65
2019-02-14T08:58:05.942Z,1027.65
2019-02-14T08:59:05.899Z,1027.64
2019-02-14T09:00:05.860Z,1027.61
2019-02-14T09:01:05.822Z,1027.65
2019-02-14T09:02:05.782Z,1027.68
2019-02-14T09:03:05.744Z,1027.63
2019-02-14T09:04:05.700Z,1027.61
2019-02-14T09:05:05.666Z,1027.58
2019-02-14T09:06:05.684Z,1027.60
2019-02-14T09:07:05.589Z,1027.59
2019-02-14T09:08:05.554Z,1027.60
2019-02-14T09:09:05.507Z,1027.54
2019-02-14T09:10:05.461Z,1027.56
2019-02-14T09:11:05.439Z,1027.57
2019-02-14T09:12:05.388Z,1027.58
2019-02-14T09:13:05.366Z,1027.53
2019-02-14T09:14:05.334Z,1027.57
2019-02-14T09:15:05.280Z,1027.53
2019-02-14T09:16:05.236Z,1027.54
2019-02-14T09:17:05.217Z,1027.50
2019-02-14T09:18:05.170Z,1027.47
2019-02-14T09:19:05.136Z,1027.45
2019-02-14T09:20:05.084Z,1027.44
2019-02-14T09:21:05.047Z,1027.43
2019-02-14T09:22:05.006Z,1027.45
2019-02-14T09:23:04.980Z,1027.51
2019-02-14T09:24:04.935Z,1027.52
2019-02-14T09:25:04.900Z,1027.54
2019-02-14T09:26:04.861Z,1027.55
2019-02-14T09:27:04.821Z,1027.58
2019-02-14T09:28:04.789Z,1027.59
2019-02-14T09:29:04.737Z,1027.59
2019-02-14T09:30:04.706Z,1027.63
2019-02-14T09:31:04.660Z,1027.61
2019-02-14T09:32:04.622Z,1027.57
2019-02-14T09:33:04.586Z,1027.58
2019-02-14T09:34:04.547Z,1027.59
2019-02-14T09:35:04.526Z,1027.64
2019-02-14T09:36:04.474Z,1027.62
2019-02-14T09:37:04.436Z,1027.65
2019-02-14T09:38:04.400Z,1027.67
2019-02-14T09:39:04.361Z,1027.68
2019-02-14T09:40:04.326Z,1027.70
2019-02-14T09:41:04.288Z,1027.69
2019-02-14T09:42:04.250Z,1027.72
2019-02-14T09:43:04.221Z,1027.75
2019-02-14T09:44:04.191Z,1027.76
2019-02-14T09:45:04.135Z,1027.80
2019-02-14T09:46:04.097Z,1027.79
2019-02-14T09:47:04.060Z,1027.79
2019-02-14T09:48:04.023Z,1027.82
2019-02-14T09:49:03.990Z,1027.79
2019-02-14T09:50:03.952Z,1027.85
2019-02-14T09:51:03.906Z,1027.79
2019-02-14T09:52:03.884Z,1027.83
2019-02-14T09:53:03.832Z,1027.81
2019-02-14T09:54:03.788Z,1027.79
2019-02-14T09:55:03.757Z,1027.80
2019-02-14T09:56:03.745Z,1027.76
2019-02-14T09:57:03.697Z,1027.82
2019-02-14T09:58:03.658Z,1027.82
2019-02-14T09:59:03.606Z,1027.79
2019-02-14T10:00:03.577Z,1027.76
2019-02-14T10:01:03.531Z,1027.74
2019-02-14T10:02:03.497Z,1028.78
2019-02-14T10:03:03.468Z,1029.99
2019-02-14T10:04:03.444Z,1030.13
2019-02-14T10:05:03.388Z,1030.18
2019-02-14T10:06:03.371Z,1029.85
2019-02-14T10:07:03.329Z,1029.70
2019-02-14T10:08:12.214Z,1029.30
2019-02-14T10:09:03.254Z,1029.01
2019-02-14T10:10:03.221Z,1029.39
2019-02-14T10:11:03.178Z,1030.15
2019-02-14T10:12:03.161Z,1030.24
2019-02-14T10:13:03.127Z,1030.22
2019-02-14T10:14:03.688Z,1029.78
2019-02-14T10:15:03.048Z,1029.28
2019-02-14T10:16:03.035Z,1028.92
2019-02-14T10:17:02.992Z,1028.82
2019-02-14T10:18:02.963Z,1028.95
2019-02-14T10:19:02.929Z,1029.15
2019-02-14T10:20:02.912Z,1029.43
2019-02-14T10:21:02.878Z,1029.61
2019-02-14T10:22:02.844Z,1029.88
2019-02-14T10:23:02.824Z,1029.48
2019-02-14T10:24:02.787Z,1029.55
2019-02-14T10:25:02.763Z,1029.67
2019-02-14T10:26:02.727Z,1029.86
2019-02-14T10:27:02.698Z,1029.61
2019-02-14T10:28:02.682Z,1029.37
2019-02-14T10:29:02.649Z,1029.02
2019-02-14T10:30:02.629Z,1029.31
2019-02-14T10:31:02.600Z,1029.73
2019-02-14T10:32:02.568Z,1029.74
2019-02-14T10:33:02.538Z,1029.75
2019-02-14T10:34:02.519Z,1029.58
2019-02-14T10:35:02.497Z,1029.48
2019-02-14T10:36:04.374Z,1029.54
2019-02-14T10:37:02.444Z,1029.29
2019-02-14T10:38:02.420Z,1029.35
2019-02-14T10:39:02.406Z,1029.31
2019-02-14T10:40:02.370Z,1029.25
2019-02-14T10:41:02.351Z,1029.24
2019-02-14T10:42:02.315Z,1029.27
2019-02-14T10:43:02.284Z,1029.14
2019-02-14T10:44:02.268Z,1029.09
2019-02-14T10:45:02.255Z,1029.17
2019-02-14T10:46:02.220Z,1029.18
2019-02-14T10:47:02.210Z,1028.82
2019-02-14T10:48:02.184Z,1028.57
2019-02-14T10:49:02.147Z,1028.79
2019-02-14T10:50:02.138Z,1028.82
2019-02-14T10:51:02.119Z,1028.81
2019-02-14T10:52:02.091Z,1028.57
2019-02-14T10:53:02.066Z,1028.81
2019-02-14T10:54:02.040Z,1028.91
2019-02-14T10:55:02.015Z,1028.92
2019-02-14T10:56:02.001Z,1028.89
2019-02-14T10:57:01.971Z,1028.80
2019-02-14T10:58:01.957Z,1028.87
2019-02-14T10:59:01.926Z,1028.84
2019-02-14T11:00:01.912Z,1028.81
2019-02-14T11:01:01.890Z,1028.69
2019-02-14T11:02:01.851Z,1028.62
2019-02-14T11:03:01.849Z,1028.67
2019-02-14T11:04:01.835Z,1028.71
2019-02-14T11:05:01.790Z,1028.59
2019-02-14T11:06:01.765Z,1028.53
2019-02-14T11:07:01.750Z,1028.55
2019-02-14T11:08:01.725Z,1028.60
2019-02-14T11:09:01.701Z,1028.58
2019-02-14T11:10:01.678Z,1028.58
2019-02-14T11:11:01.656Z,1028.53
2019-02-14T11:12:01.627Z,1028.49
2019-02-14T11:13:01.614Z,1028.46
2019-02-14T11:14:01.597Z,1028.48
2019-02-14T11:15:01.571Z,1028.34
2019-02-14T11:16:01.542Z,1028.42
2019-02-14T11:17:01.517Z,1028.35
2019-02-14T11:18:01.502Z,1028.41
2019-02-14T11:19:01.483Z,1027.95
2019-02-14T11:20:01.464Z,1028.01
2019-02-14T11:21:01.451Z,1027.87
2019-02-14T11:22:01.422Z,1027.94
2019-02-14T11:23:01.400Z,1027.74
2019-02-14T11:24:01.377Z,1028.17
2019-02-14T11:25:01.376Z,1028.35
2019-02-14T11:26:01.332Z,1028.35
2019-02-14T11:27:01.303Z,1028.34
2019-02-14T11:28:01.295Z,1027.74
2019-02-14T11:29:01.262Z,1027.67
2019-02-14T11:30:01.245Z,1027.77
2019-02-14T11:31:01.226Z,1027.73
2019-02-14T11:32:01.202Z,1027.79
2019-02-14T11:33:01.171Z,1028.08
2019-02-14T11:34:01.153Z,1027.97
2019-02-14T11:35:01.136Z,1028.24
2019-02-14T11:36:01.106Z,1028.16
2019-02-14T11:37:01.087Z,1028.08
2019-02-14T11:38:01.057Z,1028.03
2019-02-14T11:39:01.033Z,1028.07
2019-02-14T11:40:01.003Z,1027.98
2019-02-14T11:41:00.995Z,1027.99
2019-02-14T11:42:00.963Z,1027.66
2019-02-14T11:43:00.953Z,1028.03
2019-02-14T11:44:02.828Z,1027.89
2019-02-14T11:45:00.901Z,1027.90
2019-02-14T11:46:00.880Z,1027.92
2019-02-14T11:47:00.861Z,1027.84
2019-02-14T11:48:00.845Z,1027.91
2019-02-14T11:49:00.812Z,1027.86
2019-02-14T11:50:00.805Z,1027.89
2019-02-14T11:51:00.776Z,1027.84
2019-02-14T11:52:00.737Z,1027.84
2019-02-14T11:53:00.728Z,1027.76
2019-02-14T11:54:00.707Z,1027.78
2019-02-14T11:55:00.684Z,1027.79
2019-02-14T11:56:00.657Z,1027.85
2019-02-14T11:57:00.639Z,1027.78
2019-02-14T11:58:00.618Z,1027.78
2019-02-14T11:59:00.596Z,1027.78
2019-02-14T12:00:00.577Z,1027.74
2019-02-14T12:01:00.558Z,1027.73
2019-02-14T12:02:00.538Z,1027.71
2019-02-14T12:03:00.508Z,1027.68
2019-02-14T12:04:00.498Z,1027.68
2019-02-14T12:05:00.473Z,1027.60
2019-02-14T12:06:00.454Z,1027.57